Huvudsida
METAR-TAF:

METAR-TAF

Flygplatser :

Sions flygplats

Sion, Schweiz

latitud: 46-13N, longitud: 007-20E, höjd: 482 m

Aktuellt väderrapport

Denna rapport gjordes för 23 minuter sedan, klockan 12:50 UTC
Vind 1 kt varierande vindriktning
Temperatur 14°C
Fuktighet 36%
Tryck 1030 hPa
Sikt 10 km eller mer
Inga moln under 1 500 m eller inga cumulonimbus

METAR: LSGS 221250Z VRB01KT CAVOK 14/M01 Q1030

Tid: 14:13 (13:13 UTC)

Väderprognos

Denna rapport gjordes för 1 timme och 48 minuter sedan, klockan 11:25 UTC
Prognos gäller från 22 kl. 12 UTC till 22 kl. 21 UTC
Vind 3 kt varierande vindriktning
Sikt 10 km eller mer
Inga moln under 1 500 m eller inga cumulonimbus
Blir
från 22 kl. 12 UTC till 22 kl. 14 UTC
Vind 12 kt från väst/sydväst
Blir
från 22 kl. 17 UTC till 22 kl. 19 UTC
Vind 3 kt varierande vindriktning

TAF: LSGS 221125Z 2212/2221 VRB03KT CAVOK BECMG 2212/2214 25012KT BECMG 2217/2219 VRB03KT

Aktuella väderrapporter och prognoser från 4000 flygplatser (METAR- och TAF-rapporter).

De tillgängliga stationerna syns som gula och röda prickar på kartan.

För musen över prickarna för att se namnen på stationerna.

Klicka sedan för att få väderrapporter och prognoser.

För att ändra kartan: Klicka på de gröna knapparna med ett svart kors på för att zooma in; den gröna knappen med ett streck på för att zooma ut; eller på de gröna pilarna för angränsande kartor.


METAR-TAF: